sensor_id;sensor_type;location;lat;lon;timestamp;pressure;altitude;pressure_sealevel;temperature;humidity
5966;BME280;3009;43.224;27.976;2023-04-23T00:00:13;100488.97;;;7.89;98.11
5966;BME280;3009;43.224;27.976;2023-04-23T00:02:43;100496.69;;;7.90;98.64
5966;BME280;3009;43.224;27.976;2023-04-23T00:05:13;100487.91;;;7.90;97.38
5966;BME280;3009;43.224;27.976;2023-04-23T00:07:43;100486.81;;;7.91;97.72
5966;BME280;3009;43.224;27.976;2023-04-23T00:10:12;100485.44;;;7.93;97.37
5966;BME280;3009;43.224;27.976;2023-04-23T00:12:42;100484.09;;;7.96;97.19
5966;BME280;3009;43.224;27.976;2023-04-23T00:15:13;100487.75;;;8.00;96.23
5966;BME280;3009;43.224;27.976;2023-04-23T00:17:41;100485.97;;;8.14;95.21
5966;BME280;3009;43.224;27.976;2023-04-23T00:20:09;100485.09;;;8.19;94.98
5966;BME280;3009;43.224;27.976;2023-04-23T00:22:38;100488.19;;;8.07;96.58
5966;BME280;3009;43.224;27.976;2023-04-23T00:25:08;100482.06;;;8.07;96.25
5966;BME280;3009;43.224;27.976;2023-04-23T00:27:36;100480.63;;;8.14;96.21
5966;BME280;3009;43.224;27.976;2023-04-23T00:30:07;100482.81;;;8.12;95.67
5966;BME280;3009;43.224;27.976;2023-04-23T00:32:36;100485.47;;;8.12;95.22
5966;BME280;3009;43.224;27.976;2023-04-23T00:35:05;100481.00;;;8.08;96.40
5966;BME280;3009;43.224;27.976;2023-04-23T00:37:33;100478.75;;;7.96;98.68
5966;BME280;3009;43.224;27.976;2023-04-23T00:40:02;100478.16;;;7.99;99.21
5966;BME280;3009;43.224;27.976;2023-04-23T00:42:31;100473.63;;;7.99;98.90
5966;BME280;3009;43.224;27.976;2023-04-23T00:44:59;100474.09;;;8.02;99.41
5966;BME280;3009;43.224;27.976;2023-04-23T00:47:30;100476.53;;;8.03;99.14
5966;BME280;3009;43.224;27.976;2023-04-23T00:50:01;100475.41;;;8.04;98.54
5966;BME280;3009;43.224;27.976;2023-04-23T00:52:30;100474.69;;;7.98;98.66
5966;BME280;3009;43.224;27.976;2023-04-23T00:54:58;100478.38;;;8.03;98.49
5966;BME280;3009;43.224;27.976;2023-04-23T00:57:26;100478.22;;;7.94;100.00
5966;BME280;3009;43.224;27.976;2023-04-23T00:59:55;100477.84;;;7.81;100.00
5966;BME280;3009;43.224;27.976;2023-04-23T01:02:25;100476.78;;;7.83;100.00
5966;BME280;3009;43.224;27.976;2023-04-23T01:04:56;100472.22;;;7.83;100.00
5966;BME280;3009;43.224;27.976;2023-04-23T01:07:25;100486.59;;;7.87;100.00
5966;BME280;3009;43.224;27.976;2023-04-23T01:09:54;100481.13;;;7.97;100.00
5966;BME280;3009;43.224;27.976;2023-04-23T01:12:23;100471.31;;;8.12;100.00
5966;BME280;3009;43.224;27.976;2023-04-23T01:14:51;100470.38;;;8.22;99.56
5966;BME280;3009;43.224;27.976;2023-04-23T01:17:20;100471.41;;;8.26;99.58
5966;BME280;3009;43.224;27.976;2023-04-23T01:19:48;100468.00;;;8.20;99.93
5966;BME280;3009;43.224;27.976;2023-04-23T01:22:18;100469.16;;;8.14;100.00
5966;BME280;3009;43.224;27.976;2023-04-23T01:24:47;100474.84;;;8.07;100.00
5966;BME280;3009;43.224;27.976;2023-04-23T01:27:16;100474.63;;;8.04;100.00
5966;BME280;3009;43.224;27.976;2023-04-23T01:29:46;100473.03;;;8.03;100.00
5966;BME280;3009;43.224;27.976;2023-04-23T01:32:15;100473.75;;;8.08;100.00
5966;BME280;3009;43.224;27.976;2023-04-23T01:34:45;100479.84;;;8.14;100.00
5966;BME280;3009;43.224;27.976;2023-04-23T01:37:15;100477.00;;;8.05;100.00
5966;BME280;3009;43.224;27.976;2023-04-23T01:39:45;100478.78;;;7.91;100.00
5966;BME280;3009;43.224;27.976;2023-04-23T01:42:13;100479.78;;;7.76;100.00
5966;BME280;3009;43.224;27.976;2023-04-23T01:44:42;100483.38;;;7.66;100.00
5966;BME280;3009;43.224;27.976;2023-04-23T01:47:11;100481.13;;;7.54;100.00
5966;BME280;3009;43.224;27.976;2023-04-23T01:49:39;100484.53;;;7.60;100.00
5966;BME280;3009;43.224;27.976;2023-04-23T01:52:08;100483.59;;;7.70;100.00
5966;BME280;3009;43.224;27.976;2023-04-23T01:54:37;100481.66;;;7.75;100.00
5966;BME280;3009;43.224;27.976;2023-04-23T01:57:08;100483.75;;;7.78;100.00
5966;BME280;3009;43.224;27.976;2023-04-23T01:59:36;100482.69;;;7.79;100.00
5966;BME280;3009;43.224;27.976;2023-04-23T02:02:05;100487.38;;;7.88;100.00
5966;BME280;3009;43.224;27.976;2023-04-23T02:04:37;100489.06;;;8.03;100.00
5966;BME280;3009;43.224;27.976;2023-04-23T02:07:07;100486.63;;;8.06;100.00
5966;BME280;3009;43.224;27.976;2023-04-23T02:09:36;100497.94;;;7.98;100.00
5966;BME280;3009;43.224;27.976;2023-04-23T02:12:04;100489.25;;;7.87;100.00
5966;BME280;3009;43.224;27.976;2023-04-23T02:14:34;100492.50;;;7.84;100.00
5966;BME280;3009;43.224;27.976;2023-04-23T02:17:02;100496.50;;;7.87;100.00
5966;BME280;3009;43.224;27.976;2023-04-23T02:19:30;100500.16;;;7.91;100.00
5966;BME280;3009;43.224;27.976;2023-04-23T02:22:00;100491.81;;;7.97;100.00
5966;BME280;3009;43.224;27.976;2023-04-23T02:24:29;100496.00;;;8.04;100.00
5966;BME280;3009;43.224;27.976;2023-04-23T02:26:57;100493.81;;;8.06;100.00
5966;BME280;3009;43.224;27.976;2023-04-23T02:29:25;100502.19;;;8.18;100.00
5966;BME280;3009;43.224;27.976;2023-04-23T02:31:55;100495.69;;;8.24;100.00
5966;BME280;3009;43.224;27.976;2023-04-23T02:34:23;100493.25;;;8.28;100.00
5966;BME280;3009;43.224;27.976;2023-04-23T02:36:52;100491.81;;;8.36;100.00
5966;BME280;3009;43.224;27.976;2023-04-23T02:39:21;100490.22;;;8.34;100.00
5966;BME280;3009;43.224;27.976;2023-04-23T02:41:50;100495.69;;;8.24;100.00
5966;BME280;3009;43.224;27.976;2023-04-23T02:44:18;100496.28;;;8.21;100.00
5966;BME280;3009;43.224;27.976;2023-04-23T02:46:46;100495.44;;;8.26;100.00
5966;BME280;3009;43.224;27.976;2023-04-23T02:49:16;100490.34;;;8.24;100.00
5966;BME280;3009;43.224;27.976;2023-04-23T02:51:46;100496.13;;;8.31;100.00
5966;BME280;3009;43.224;27.976;2023-04-23T02:54:14;100500.97;;;8.29;100.00
5966;BME280;3009;43.224;27.976;2023-04-23T02:56:42;100489.44;;;8.34;100.00
5966;BME280;3009;43.224;27.976;2023-04-23T02:59:11;100495.34;;;8.31;100.00
5966;BME280;3009;43.224;27.976;2023-04-23T03:01:39;100489.50;;;8.29;100.00
5966;BME280;3009;43.224;27.976;2023-04-23T03:04:08;100495.69;;;8.24;100.00
5966;BME280;3009;43.224;27.976;2023-04-23T03:06:38;100495.19;;;8.22;100.00
5966;BME280;3009;43.224;27.976;2023-04-23T03:09:06;100496.81;;;8.23;100.00
5966;BME280;3009;43.224;27.976;2023-04-23T03:11:34;100496.28;;;8.21;100.00
5966;BME280;3009;43.224;27.976;2023-04-23T03:14:03;100492.75;;;8.26;100.00
5966;BME280;3009;43.224;27.976;2023-04-23T03:16:31;100498.16;;;8.21;100.00
5966;BME280;3009;43.224;27.976;2023-04-23T03:19:00;100493.97;;;8.14;100.00
5966;BME280;3009;43.224;27.976;2023-04-23T03:21:28;100499.25;;;8.20;100.00
5966;BME280;3009;43.224;27.976;2023-04-23T03:23:58;100500.25;;;8.24;100.00
5966;BME280;3009;43.224;27.976;2023-04-23T03:26:27;100500.31;;;8.38;100.00
5966;BME280;3009;43.224;27.976;2023-04-23T03:28:55;100507.47;;;8.42;100.00
5966;BME280;3009;43.224;27.976;2023-04-23T03:31:23;100509.38;;;8.61;100.00
5966;BME280;3009;43.224;27.976;2023-04-23T03:33:52;100504.50;;;8.82;100.00
5966;BME280;3009;43.224;27.976;2023-04-23T03:36:20;100504.69;;;9.18;99.63
5966;BME280;3009;43.224;27.976;2023-04-23T03:38:48;100500.84;;;9.66;96.11
5966;BME280;3009;43.224;27.976;2023-04-23T03:41:18;100504.84;;;10.19;90.40
5966;BME280;3009;43.224;27.976;2023-04-23T03:43:46;100507.22;;;10.57;86.38
5966;BME280;3009;43.224;27.976;2023-04-23T03:46:14;100517.75;;;10.76;83.53
5966;BME280;3009;43.224;27.976;2023-04-23T03:48:43;100514.94;;;11.04;82.37
5966;BME280;3009;43.224;27.976;2023-04-23T03:51:12;100509.81;;;11.25;82.85
5966;BME280;3009;43.224;27.976;2023-04-23T03:53:40;100512.38;;;11.79;78.10
5966;BME280;3009;43.224;27.976;2023-04-23T03:56:09;100518.81;;;12.36;75.90
5966;BME280;3009;43.224;27.976;2023-04-23T03:58:38;100524.69;;;13.20;71.39
5966;BME280;3009;43.224;27.976;2023-04-23T04:01:07;100528.69;;;13.61;69.44
5966;BME280;3009;43.224;27.976;2023-04-23T04:03:35;100525.66;;;13.63;69.93
5966;BME280;3009;43.224;27.976;2023-04-23T04:06:04;100533.13;;;14.38;63.60
5966;BME280;3009;43.224;27.976;2023-04-23T04:08:33;100535.34;;;14.57;63.08
5966;BME280;3009;43.224;27.976;2023-04-23T04:11:02;100531.91;;;14.90;60.67
5966;BME280;3009;43.224;27.976;2023-04-23T04:13:30;100534.66;;;15.15;59.40
5966;BME280;3009;43.224;27.976;2023-04-23T04:16:00;100541.69;;;15.53;58.79
5966;BME280;3009;43.224;27.976;2023-04-23T04:18:28;100536.69;;;16.29;54.21
5966;BME280;3009;43.224;27.976;2023-04-23T04:20:57;100534.75;;;16.29;54.62
5966;BME280;3009;43.224;27.976;2023-04-23T04:23:25;100537.28;;;16.10;55.60
5966;BME280;3009;43.224;27.976;2023-04-23T04:25:54;100539.63;;;16.11;56.13
5966;BME280;3009;43.224;27.976;2023-04-23T04:28:23;100541.75;;;16.30;55.79
5966;BME280;3009;43.224;27.976;2023-04-23T04:30:52;100542.53;;;16.31;56.38
5966;BME280;3009;43.224;27.976;2023-04-23T04:33:24;100538.72;;;16.89;55.18
5966;BME280;3009;43.224;27.976;2023-04-23T04:35:52;100541.97;;;17.74;52.37
5966;BME280;3009;43.224;27.976;2023-04-23T04:38:21;100549.25;;;18.41;50.21
5966;BME280;3009;43.224;27.976;2023-04-23T04:40:49;100545.28;;;19.20;47.50
5966;BME280;3009;43.224;27.976;2023-04-23T04:43:18;100547.47;;;20.11;44.92
5966;BME280;3009;43.224;27.976;2023-04-23T04:45:47;100545.31;;;20.58;43.17
5966;BME280;3009;43.224;27.976;2023-04-23T04:48:15;100550.81;;;21.43;40.50
5966;BME280;3009;43.224;27.976;2023-04-23T04:50:45;100560.50;;;21.82;38.91
5966;BME280;3009;43.224;27.976;2023-04-23T04:53:13;100562.66;;;22.21;37.14
5966;BME280;3009;43.224;27.976;2023-04-23T04:55:42;100562.03;;;21.31;38.66
5966;BME280;3009;43.224;27.976;2023-04-23T04:58:10;100561.94;;;21.20;39.71
5966;BME280;3009;43.224;27.976;2023-04-23T05:00:38;100563.75;;;22.06;39.33
5966;BME280;3009;43.224;27.976;2023-04-23T05:03:07;100562.50;;;22.80;37.51
5966;BME280;3009;43.224;27.976;2023-04-23T05:05:39;100562.44;;;21.82;38.94
5966;BME280;3009;43.224;27.976;2023-04-23T05:08:09;100558.13;;;19.70;43.78
5966;BME280;3009;43.224;27.976;2023-04-23T05:10:37;100556.69;;;20.97;40.82
5966;BME280;3009;43.224;27.976;2023-04-23T05:13:06;100555.41;;;21.81;39.28
5966;BME280;3009;43.224;27.976;2023-04-23T05:15:34;100557.66;;;21.68;40.00
5966;BME280;3009;43.224;27.976;2023-04-23T05:18:04;100561.91;;;21.62;40.78
5966;BME280;3009;43.224;27.976;2023-04-23T05:20:34;100567.09;;;21.29;40.96
5966;BME280;3009;43.224;27.976;2023-04-23T05:23:03;100568.44;;;19.80;43.07
5966;BME280;3009;43.224;27.976;2023-04-23T05:25:33;100565.88;;;18.20;47.75
5966;BME280;3009;43.224;27.976;2023-04-23T05:28:01;100569.81;;;16.95;52.25
5966;BME280;3009;43.224;27.976;2023-04-23T05:30:30;100574.84;;;16.80;55.77
5966;BME280;3009;43.224;27.976;2023-04-23T05:32:58;100570.69;;;17.27;54.54
5966;BME280;3009;43.224;27.976;2023-04-23T05:35:26;100572.94;;;18.24;51.13
5966;BME280;3009;43.224;27.976;2023-04-23T05:37:55;100565.34;;;19.58;47.48
5966;BME280;3009;43.224;27.976;2023-04-23T05:40:23;100573.25;;;19.90;45.02
5966;BME280;3009;43.224;27.976;2023-04-23T05:42:53;100570.56;;;19.94;45.00
5966;BME280;3009;43.224;27.976;2023-04-23T05:45:22;100564.00;;;20.25;42.23
5966;BME280;3009;43.224;27.976;2023-04-23T05:47:50;100580.47;;;20.06;42.58
5966;BME280;3009;43.224;27.976;2023-04-23T05:50:20;100576.81;;;19.94;43.89
5966;BME280;3009;43.224;27.976;2023-04-23T05:52:48;100569.09;;;20.00;43.29
5966;BME280;3009;43.224;27.976;2023-04-23T05:55:17;100575.75;;;20.33;43.96
5966;BME280;3009;43.224;27.976;2023-04-23T05:57:46;100574.59;;;20.64;43.98
5966;BME280;3009;43.224;27.976;2023-04-23T06:00:16;100574.38;;;21.18;42.93
5966;BME280;3009;43.224;27.976;2023-04-23T06:02:45;100574.63;;;21.47;41.45
5966;BME280;3009;43.224;27.976;2023-04-23T06:05:13;100578.34;;;22.35;39.26
5966;BME280;3009;43.224;27.976;2023-04-23T06:07:42;100579.78;;;21.11;39.18
5966;BME280;3009;43.224;27.976;2023-04-23T06:10:11;100584.13;;;20.78;41.24
5966;BME280;3009;43.224;27.976;2023-04-23T06:12:39;100586.63;;;21.83;40.82
5966;BME280;3009;43.224;27.976;2023-04-23T06:15:09;100586.38;;;22.03;38.44
5966;BME280;3009;43.224;27.976;2023-04-23T06:17:38;100578.44;;;21.35;39.32
5966;BME280;3009;43.224;27.976;2023-04-23T06:20:08;100588.78;;;23.10;36.40
5966;BME280;3009;43.224;27.976;2023-04-23T06:22:37;100593.00;;;22.86;36.05
5966;BME280;3009;43.224;27.976;2023-04-23T06:25:06;100583.09;;;22.49;35.82
5966;BME280;3009;43.224;27.976;2023-04-23T06:27:35;100585.72;;;21.23;37.52
5966;BME280;3009;43.224;27.976;2023-04-23T06:30:04;100585.50;;;21.88;37.00
5966;BME280;3009;43.224;27.976;2023-04-23T06:32:32;100586.66;;;21.38;36.77
5966;BME280;3009;43.224;27.976;2023-04-23T06:35:02;100588.03;;;20.50;38.89
5966;BME280;3009;43.224;27.976;2023-04-23T06:37:31;100585.94;;;22.01;36.16
5966;BME280;3009;43.224;27.976;2023-04-23T06:40:00;100589.38;;;21.38;37.12
5966;BME280;3009;43.224;27.976;2023-04-23T06:42:28;100591.50;;;23.25;34.69
5966;BME280;3009;43.224;27.976;2023-04-23T06:44:57;100587.94;;;22.92;34.35
5966;BME280;3009;43.224;27.976;2023-04-23T06:47:32;100585.44;;;21.84;35.27
5966;BME280;3009;43.224;27.976;2023-04-23T06:50:02;100594.00;;;21.34;37.14
5966;BME280;3009;43.224;27.976;2023-04-23T06:52:31;100583.84;;;21.28;37.21
5966;BME280;3009;43.224;27.976;2023-04-23T06:54:59;100595.97;;;21.37;37.15
5966;BME280;3009;43.224;27.976;2023-04-23T06:57:28;100595.75;;;21.53;36.72
5966;BME280;3009;43.224;27.976;2023-04-23T06:59:56;100598.91;;;22.15;35.61
5966;BME280;3009;43.224;27.976;2023-04-23T07:02:25;100604.31;;;22.85;34.83
5966;BME280;3009;43.224;27.976;2023-04-23T07:04:53;100604.03;;;23.47;33.39
5966;BME280;3009;43.224;27.976;2023-04-23T07:07:23;100596.16;;;24.11;32.85
5966;BME280;3009;43.224;27.976;2023-04-23T07:09:52;100594.28;;;22.22;35.25
5966;BME280;3009;43.224;27.976;2023-04-23T07:12:20;100604.88;;;20.89;36.66
5966;BME280;3009;43.224;27.976;2023-04-23T07:14:48;100600.75;;;21.96;36.39
5966;BME280;3009;43.224;27.976;2023-04-23T07:17:19;100606.28;;;22.98;34.54
5966;BME280;3009;43.224;27.976;2023-04-23T07:19:47;100606.25;;;22.03;35.54
5966;BME280;3009;43.224;27.976;2023-04-23T07:22:16;100614.88;;;22.09;34.88
5966;BME280;3009;43.224;27.976;2023-04-23T07:24:46;100611.28;;;22.71;35.78
5966;BME280;3009;43.224;27.976;2023-04-23T07:27:14;100615.25;;;22.85;36.07
5966;BME280;3009;43.224;27.976;2023-04-23T07:29:43;100616.22;;;19.58;43.09
5966;BME280;3009;43.224;27.976;2023-04-23T07:32:11;100619.19;;;19.95;43.51
5966;BME280;3009;43.224;27.976;2023-04-23T07:34:39;100619.84;;;19.19;45.81
5966;BME280;3009;43.224;27.976;2023-04-23T07:37:08;100615.81;;;17.51;49.70
5966;BME280;3009;43.224;27.976;2023-04-23T07:39:37;100615.09;;;17.86;49.47
5966;BME280;3009;43.224;27.976;2023-04-23T07:42:11;100614.75;;;17.40;47.52
5966;BME280;3009;43.224;27.976;2023-04-23T07:44:39;100616.28;;;17.09;51.93
5966;BME280;3009;43.224;27.976;2023-04-23T07:47:07;100615.34;;;17.49;49.51
5966;BME280;3009;43.224;27.976;2023-04-23T07:49:36;100617.19;;;17.29;46.96
5966;BME280;3009;43.224;27.976;2023-04-23T07:52:04;100621.47;;;17.30;47.81
5966;BME280;3009;43.224;27.976;2023-04-23T07:54:33;100611.59;;;17.38;47.70
5966;BME280;3009;43.224;27.976;2023-04-23T07:57:02;100606.53;;;17.52;48.51
5966;BME280;3009;43.224;27.976;2023-04-23T07:59:31;100616.19;;;17.22;47.64
5966;BME280;3009;43.224;27.976;2023-04-23T08:02:00;100614.84;;;16.59;47.94
5966;BME280;3009;43.224;27.976;2023-04-23T08:04:28;100608.81;;;16.78;49.02
5966;BME280;3009;43.224;27.976;2023-04-23T08:06:57;100609.31;;;16.55;48.71
5966;BME280;3009;43.224;27.976;2023-04-23T08:09:26;100605.19;;;16.33;50.13
5966;BME280;3009;43.224;27.976;2023-04-23T08:11:54;100601.13;;;16.52;49.75
5966;BME280;3009;43.224;27.976;2023-04-23T08:14:23;100603.91;;;16.55;48.25
5966;BME280;3009;43.224;27.976;2023-04-23T08:16:53;100610.72;;;16.37;48.53
5966;BME280;3009;43.224;27.976;2023-04-23T08:19:21;100604.34;;;16.57;49.57
5966;BME280;3009;43.224;27.976;2023-04-23T08:21:49;100601.59;;;16.70;49.20
5966;BME280;3009;43.224;27.976;2023-04-23T08:24:18;100600.00;;;16.40;49.48
5966;BME280;3009;43.224;27.976;2023-04-23T08:26:47;100604.34;;;16.57;48.84
5966;BME280;3009;43.224;27.976;2023-04-23T08:29:15;100604.16;;;16.38;48.31
5966;BME280;3009;43.224;27.976;2023-04-23T08:31:44;100600.94;;;16.20;48.62
5966;BME280;3009;43.224;27.976;2023-04-23T08:34:14;100600.28;;;15.86;49.34
5966;BME280;3009;43.224;27.976;2023-04-23T08:36:42;100600.50;;;16.05;49.29
5966;BME280;3009;43.224;27.976;2023-04-23T08:39:12;100590.59;;;16.09;48.85
5966;BME280;3009;43.224;27.976;2023-04-23T08:41:41;100599.38;;;16.19;49.08
5966;BME280;3009;43.224;27.976;2023-04-23T08:44:12;100597.09;;;16.21;49.74
5966;BME280;3009;43.224;27.976;2023-04-23T08:46:44;100593.88;;;15.78;50.62
5966;BME280;3009;43.224;27.976;2023-04-23T08:49:16;100587.00;;;15.81;50.76
5966;BME280;3009;43.224;27.976;2023-04-23T08:51:48;100597.91;;;16.09;50.97
5966;BME280;3009;43.224;27.976;2023-04-23T08:54:21;100594.50;;;16.37;50.59
5966;BME280;3009;43.224;27.976;2023-04-23T08:56:54;100589.38;;;16.47;50.32
5966;BME280;3009;43.224;27.976;2023-04-23T08:59:24;100592.19;;;16.51;51.33
5966;BME280;3009;43.224;27.976;2023-04-23T09:01:53;100591.38;;;16.63;50.77
5966;BME280;3009;43.224;27.976;2023-04-23T09:04:25;100589.09;;;16.37;53.12
5966;BME280;3009;43.224;27.976;2023-04-23T09:06:54;100595.50;;;16.44;52.40
5966;BME280;3009;43.224;27.976;2023-04-23T09:09:23;100583.66;;;16.37;52.83
5966;BME280;3009;43.224;27.976;2023-04-23T09:11:52;100592.31;;;16.42;52.90
5966;BME280;3009;43.224;27.976;2023-04-23T09:14:21;100593.44;;;16.54;52.57
5966;BME280;3009;43.224;27.976;2023-04-23T09:16:51;100585.25;;;16.66;49.13
5966;BME280;3009;43.224;27.976;2023-04-23T09:19:19;100589.06;;;16.77;48.55
5966;BME280;3009;43.224;27.976;2023-04-23T09:21:49;100593.81;;;16.80;48.64
5966;BME280;3009;43.224;27.976;2023-04-23T09:24:20;100592.59;;;17.06;47.59
5966;BME280;3009;43.224;27.976;2023-04-23T09:26:50;100589.47;;;17.36;47.76
5966;BME280;3009;43.224;27.976;2023-04-23T09:29:19;100585.59;;;17.05;47.45
5966;BME280;3009;43.224;27.976;2023-04-23T09:31:50;100581.00;;;16.53;49.31
5966;BME280;3009;43.224;27.976;2023-04-23T09:34:19;100583.38;;;16.95;48.58
5966;BME280;3009;43.224;27.976;2023-04-23T09:36:50;100587.25;;;17.10;48.11
5966;BME280;3009;43.224;27.976;2023-04-23T09:39:21;100583.41;;;16.82;49.67
5966;BME280;3009;43.224;27.976;2023-04-23T09:41:50;100587.47;;;16.48;49.72
5966;BME280;3009;43.224;27.976;2023-04-23T09:44:20;100594.16;;;16.79;49.21
5966;BME280;3009;43.224;27.976;2023-04-23T09:46:49;100590.75;;;16.41;49.24
5966;BME280;3009;43.224;27.976;2023-04-23T09:49:17;100587.53;;;16.64;48.81
5966;BME280;3009;43.224;27.976;2023-04-23T09:51:47;100583.88;;;16.72;47.88
5966;BME280;3009;43.224;27.976;2023-04-23T09:54:19;100588.28;;;16.36;47.91
5966;BME280;3009;43.224;27.976;2023-04-23T09:56:49;100582.19;;;16.39;48.49
5966;BME280;3009;43.224;27.976;2023-04-23T09:59:21;100580.69;;;15.89;50.24
5966;BME280;3009;43.224;27.976;2023-04-23T10:02:06;100582.16;;;16.52;49.69
5966;BME280;3009;43.224;27.976;2023-04-23T10:04:37;100575.53;;;16.77;48.97
5966;BME280;3009;43.224;27.976;2023-04-23T10:07:06;100569.91;;;16.70;48.84
5966;BME280;3009;43.224;27.976;2023-04-23T10:09:43;100571.72;;;16.66;47.75
5966;BME280;3009;43.224;27.976;2023-04-23T10:12:12;100569.56;;;16.72;48.51
5966;BME280;3009;43.224;27.976;2023-04-23T10:14:45;100570.28;;;16.84;48.47
5966;BME280;3009;43.224;27.976;2023-04-23T10:17:15;100571.94;;;16.33;48.22
5966;BME280;3009;43.224;27.976;2023-04-23T10:19:44;100565.16;;;16.39;49.14
5966;BME280;3009;43.224;27.976;2023-04-23T10:22:15;100564.56;;;16.58;49.07
5966;BME280;3009;43.224;27.976;2023-04-23T10:24:51;100571.00;;;16.53;50.27
5966;BME280;3009;43.224;27.976;2023-04-23T10:27:26;100568.34;;;16.69;48.94
5966;BME280;3009;43.224;27.976;2023-04-23T10:30:14;100567.44;;;16.65;49.60
5966;BME280;3009;43.224;27.976;2023-04-23T10:32:44;100569.22;;;16.45;48.71
5966;BME280;3009;43.224;27.976;2023-04-23T10:35:15;100568.16;;;16.50;49.41
5966;BME280;3009;43.224;27.976;2023-04-23T10:37:45;100564.38;;;16.38;49.97
5966;BME280;3009;43.224;27.976;2023-04-23T10:40:19;100563.09;;;16.48;49.52
5966;BME280;3009;43.224;27.976;2023-04-23T10:42:52;100568.13;;;16.34;51.13
5966;BME280;3009;43.224;27.976;2023-04-23T10:45:21;100557.78;;;16.23;51.25
5966;BME280;3009;43.224;27.976;2023-04-23T10:47:52;100552.47;;;16.15;50.47
5966;BME280;3009;43.224;27.976;2023-04-23T10:50:23;100554.03;;;16.28;51.38
5966;BME280;3009;43.224;27.976;2023-04-23T10:52:53;100559.81;;;16.14;49.15
5966;BME280;3009;43.224;27.976;2023-04-23T10:55:26;100550.41;;;16.36;49.36
5966;BME280;3009;43.224;27.976;2023-04-23T10:57:56;100548.91;;;15.98;48.96
5966;BME280;3009;43.224;27.976;2023-04-23T11:00:29;100553.53;;;15.85;48.93
5966;BME280;3009;43.224;27.976;2023-04-23T11:03:29;100553.06;;;15.83;49.47
5966;BME280;3009;43.224;27.976;2023-04-23T11:06:00;100552.16;;;15.67;48.95
5966;BME280;3009;43.224;27.976;2023-04-23T11:08:29;100548.91;;;15.73;49.04
5966;BME280;3009;43.224;27.976;2023-04-23T11:11:02;100562.19;;;16.03;50.28
5966;BME280;3009;43.224;27.976;2023-04-23T11:13:33;100554.03;;;16.28;49.93
5966;BME280;3009;43.224;27.976;2023-04-23T11:16:15;100554.97;;;16.07;49.25
5966;BME280;3009;43.224;27.976;2023-04-23T11:18:57;100551.03;;;15.92;49.57
5966;BME280;3009;43.224;27.976;2023-04-23T11:21:59;100546.88;;;15.95;49.54
5966;BME280;3009;43.224;27.976;2023-04-23T11:24:30;100547.72;;;16.24;50.06
5966;BME280;3009;43.224;27.976;2023-04-23T11:27:00;100548.09;;;16.10;49.62
5966;BME280;3009;43.224;27.976;2023-04-23T11:29:28;100544.41;;;15.90;49.90
5966;BME280;3009;43.224;27.976;2023-04-23T11:31:57;100549.44;;;15.67;52.79
5966;BME280;3009;43.224;27.976;2023-04-23T11:34:29;100552.28;;;15.70;48.68
5966;BME280;3009;43.224;27.976;2023-04-23T11:36:58;100553.72;;;15.55;51.45
5966;BME280;3009;43.224;27.976;2023-04-23T11:39:28;100555.44;;;15.60;51.79
5966;BME280;3009;43.224;27.976;2023-04-23T11:41:56;100548.44;;;15.59;49.89
5966;BME280;3009;43.224;27.976;2023-04-23T11:44:30;100562.84;;;15.63;52.12
5966;BME280;3009;43.224;27.976;2023-04-23T11:47:00;100555.09;;;15.86;54.64
5966;BME280;3009;43.224;27.976;2023-04-23T11:49:29;100562.38;;;16.23;55.37
5966;BME280;3009;43.224;27.976;2023-04-23T11:51:59;100553.88;;;15.96;62.03
5966;BME280;3009;43.224;27.976;2023-04-23T11:54:28;100555.66;;;15.92;64.09
5966;BME280;3009;43.224;27.976;2023-04-23T11:56:56;100546.88;;;15.95;65.26
5966;BME280;3009;43.224;27.976;2023-04-23T11:59:26;100545.78;;;15.84;64.61
5966;BME280;3009;43.224;27.976;2023-04-23T12:01:57;100547.66;;;15.46;69.78
5966;BME280;3009;43.224;27.976;2023-04-23T12:04:28;100552.91;;;15.18;72.63
5966;BME280;3009;43.224;27.976;2023-04-23T12:06:57;100549.59;;;14.66;76.52
5966;BME280;3009;43.224;27.976;2023-04-23T12:09:27;100549.19;;;14.56;79.69
5966;BME280;3009;43.224;27.976;2023-04-23T12:11:56;100551.56;;;14.78;82.63
5966;BME280;3009;43.224;27.976;2023-04-23T12:14:26;100551.63;;;14.69;87.44
5966;BME280;3009;43.224;27.976;2023-04-23T12:16:58;100549.13;;;13.92;98.71
5966;BME280;3009;43.224;27.976;2023-04-23T12:19:35;100545.41;;;13.76;100.00
5966;BME280;3009;43.224;27.976;2023-04-23T12:22:04;100546.94;;;13.56;100.00
5966;BME280;3009;43.224;27.976;2023-04-23T12:24:46;100541.09;;;13.83;100.00
5966;BME280;3009;43.224;27.976;2023-04-23T12:27:18;100537.34;;;14.06;94.10
5966;BME280;3009;43.224;27.976;2023-04-23T12:29:48;100533.66;;;14.31;85.42
5966;BME280;3009;43.224;27.976;2023-04-23T12:32:18;100524.34;;;14.83;76.60
5966;BME280;3009;43.224;27.976;2023-04-23T12:34:53;100514.84;;;14.65;72.21
5966;BME280;3009;43.224;27.976;2023-04-23T12:37:23;100518.09;;;15.04;75.31
5966;BME280;3009;43.224;27.976;2023-04-23T12:39:53;100508.31;;;14.99;71.31
5966;BME280;3009;43.224;27.976;2023-04-23T12:42:23;100499.66;;;15.18;67.33
5966;BME280;3009;43.224;27.976;2023-04-23T12:44:51;100507.22;;;15.37;63.56
5966;BME280;3009;43.224;27.976;2023-04-23T12:47:23;100506.28;;;15.09;62.16
5966;BME280;3009;43.224;27.976;2023-04-23T12:49:51;100503.84;;;15.28;64.79
5966;BME280;3009;43.224;27.976;2023-04-23T12:52:21;100500.94;;;15.58;64.50
5966;BME280;3009;43.224;27.976;2023-04-23T12:54:49;100500.91;;;15.70;61.78
5966;BME280;3009;43.224;27.976;2023-04-23T12:57:22;100500.50;;;15.81;64.20
5966;BME280;3009;43.224;27.976;2023-04-23T12:59:50;100494.94;;;15.77;58.20
5966;BME280;3009;43.224;27.976;2023-04-23T13:02:23;100493.59;;;15.83;58.74
5966;BME280;3009;43.224;27.976;2023-04-23T13:04:53;100503.41;;;15.63;59.28
5966;BME280;3009;43.224;27.976;2023-04-23T13:07:27;100499.69;;;15.43;61.53
5966;BME280;3009;43.224;27.976;2023-04-23T13:09:55;100501.81;;;15.13;54.59
5966;BME280;3009;43.224;27.976;2023-04-23T13:12:25;100498.94;;;14.84;57.72